Airfield :
LOGIN :

Register | Disclaimer

   EN    FR    IT 

 










Legend :    VFR   Marginal VFR   IFR   Intensive IFR   Very Intensive IFR
Visi :
Ceiling :
>= 8 km
>= 3000ft
5 to 8 km
1000 to 3000 ft
1500m to 5 km
500 to 1000 ft
800 to 1500m
200 to 500 ft
< 800m
< 200 ft
Symbols :   Thunderstorms  Fog  Heavy snow  Heavy precipitations  Wind > 20 kt
SIGMETs :     Misc.  Thunderstorms  Icing  Turbulence  Mountain Waves  Volcanic Ashes







- Airport Elevation : 202 ft
- IATA code : LGW
- Download approach charts


EGKK - London Gatwick

CURRENT METAR :
  • 240750Z 24006KT CAVOK 23/19 Q1012

EXPIRED METARs :
  • 240720Z 24007KT CAVOK 22/18 Q1012
  • 240650Z 23007KT CAVOK 21/18 Q1012
  • 240620Z 21005KT 180V240 CAVOK 21/17 Q1011
  • 240550Z 21006KT 180V250 CAVOK 21/17 Q1011

TAF TAF EGKK
Valid from the 24 at 06:00 until the 25 at 12:00 UTC


240456Z 2406/2512 25006KT CAVOK
BECMG 2500/2503 09010KT
No reported NOTAMs for that airfield.
1 SIGMET reported for the London FIR (EGTT) :
 
Embedded thunderstorms and hail
EGTT SIGMET 03 VALID 240608/241000 EGRR
EGTT LONDON FIR EMBD TSGR FCST WI N5319 E00333 - N5133 E00202 - N5500 W00106 - N5500 E00137 - N5319 E00333 TOP FL380 MOV NE 35KT NC=



MET'MAP, your aeronautical weather chart ! - Copyright ORBIFLY December 2007 - Disclaimer

ORBIFLY MET'MAP TEAM :

Programming & Development : Alexandra Zaïnal
Concept & Development : Baudouin d'Aumeries
Co-Development & Prog : Marc-Olivier Méhu
Technical & hardware support : Manuel Goepfert

Contact : metmap@orbifly.com




SOURCES & CREDITS :

   NOAA